Time;durP1;ratioP1;P1;durP2;ratioP2;P2;SDS_P1;SDS_P2;PMS_P1;PMS_P2;Temp;Humidity;BMP_temperature;BMP_pressure;BME280_temperature;BME280_humidity;BME280_pressure;Samples;Min_cycle;Max_cycle;Signal;HPM_P1;HPM_P2
2023/08/20 00:00:06;;;;;;;13.73;12.20;;;;;;;;;;750715;184;919416;-58
2023/08/20 00:02:32;;;;;;;14.83;13.33;;;;;;;;;;750652;183;919525;-64
2023/08/20 00:04:58;;;;;;;17.43;13.63;;;;;;;;;;763515;181;919105;-64
2023/08/20 00:07:24;;;;;;;13.90;12.53;;;;;;;;;;753575;184;918836;-65
2023/08/20 00:09:50;;;;;;;13.73;11.73;;;;;;;;;;756696;184;918927;-57
2023/08/20 00:12:16;;;;;;;135.13;15.53;;;;;;;;;;759286;182;919659;-58
2023/08/20 00:14:48;;;;;;;24.90;10.57;;;;;;;;;;759988;184;919484;-57
2023/08/20 00:17:14;;;;;;;18.40;11.73;;;;;;;;;;756524;184;919357;-58
2023/08/20 00:19:40;;;;;;;13.00;11.60;;;;;;;;;;751422;183;919427;-58
2023/08/20 00:22:06;;;;;;;18.47;12.07;;;;;;;;;;759536;184;919557;-59
2023/08/20 00:24:32;;;;;;;11.93;10.50;;;;;;;;;;757462;184;920770;-65
2023/08/20 00:26:58;;;;;;;89.87;13.90;;;;;;;;;;752228;183;919266;-58
2023/08/20 00:29:23;;;;;;;50.10;14.13;;;;;;;;;;758696;181;916829;-58
2023/08/20 00:31:49;;;;;;;15.98;12.48;;;;;;;;;;762500;184;919242;-58
2023/08/20 00:34:15;;;;;;;15.17;13.50;;;;;;;;;;748568;185;922497;-58
2023/08/20 00:36:41;;;;;;;13.73;12.07;;;;;;;;;;751685;186;817150;-64
2023/08/20 00:39:07;;;;;;;14.53;13.03;;;;;;;;;;754730;185;916808;-64
2023/08/20 00:41:33;;;;;;;18.57;14.07;;;;;;;;;;757883;181;916527;-64
2023/08/20 00:43:58;;;;;;;15.00;12.95;;;;;;;;;;759679;183;885946;-64
2023/08/20 00:46:24;;;;;;;34.67;9.97;;;;;;;;;;765410;182;919502;-58
2023/08/20 00:48:50;;;;;;;12.67;11.37;;;;;;;;;;759328;184;918492;-65
2023/08/20 00:51:16;;;;;;;23.83;11.47;;;;;;;;;;758731;184;919537;-58
2023/08/20 00:53:42;;;;;;;16.50;13.40;;;;;;;;;;756743;184;919297;-65
2023/08/20 00:56:08;;;;;;;18.43;14.70;;;;;;;;;;758851;184;921967;-57
2023/08/20 00:58:34;;;;;;;14.87;13.17;;;;;;;;;;754375;184;920753;-57
2023/08/20 01:00:59;;;;;;;17.12;13.95;;;;;;;;;;754766;184;919107;-64
2023/08/20 01:03:25;;;;;;;17.30;15.50;;;;;;;;;;756223;184;920442;-57
2023/08/20 01:05:51;;;;;;;22.97;13.93;;;;;;;;;;753393;183;919442;-58
2023/08/20 01:08:20;;;;;;;16.73;15.03;;;;;;;;;;753912;185;888967;-58
2023/08/20 01:11:02;;;;;;;16.77;14.70;;;;;;;;;;751886;187;919311;-58
2023/08/20 01:13:28;;;;;;;19.40;14.33;;;;;;;;;;760741;184;918621;-59
2023/08/20 01:15:54;;;;;;;19.80;14.03;;;;;;;;;;748131;184;925703;-59
2023/08/20 01:18:20;;;;;;;16.57;14.67;;;;;;;;;;757559;182;919874;-67
2023/08/20 01:20:46;;;;;;;20.10;15.70;;;;;;;;;;762670;185;918734;-64
2023/08/20 01:23:27;;;;;;;16.83;14.97;;;;;;;;;;755638;184;918801;-65
2023/08/20 01:25:59;;;;;;;19.33;14.07;;;;;;;;;;761659;181;919481;-59
2023/08/20 01:28:26;;;;;;;23.07;13.73;;;;;;;;;;759286;183;918953;-58
2023/08/20 01:30:52;;;;;;;20.70;14.67;;;;;;;;;;760172;183;919664;-64
2023/08/20 01:33:18;;;;;;;19.40;12.40;;;;;;;;;;762267;183;918182;-59
2023/08/20 01:35:43;;;;;;;14.47;12.97;;;;;;;;;;760214;183;919390;-59
2023/08/20 01:38:09;;;;;;;15.03;13.50;;;;;;;;;;755535;184;839367;-64
2023/08/20 01:40:35;;;;;;;17.90;12.43;;;;;;;;;;757277;183;819205;-66
2023/08/20 01:43:01;;;;;;;14.60;12.70;;;;;;;;;;763283;183;821008;-59
2023/08/20 01:45:27;;;;;;;16.10;13.73;;;;;;;;;;758082;184;919402;-65
2023/08/20 01:47:53;;;;;;;14.77;12.02;;;;;;;;;;757503;184;918710;-59
2023/08/20 01:50:18;;;;;;;13.50;12.10;;;;;;;;;;763825;184;820030;-64
2023/08/20 01:52:44;;;;;;;172.20;17.17;;;;;;;;;;750939;183;861991;-64
2023/08/20 01:55:10;;;;;;;18.60;12.30;;;;;;;;;;745795;185;913934;-65
2023/08/20 01:57:36;;;;;;;14.33;12.83;;;;;;;;;;761487;183;918817;-66
2023/08/20 02:00:04;;;;;;;17.10;12.80;;;;;;;;;;749484;186;931163;-58
2023/08/20 02:02:28;;;;;;;12.97;11.67;;;;;;;;;;753767;185;913119;-66
2023/08/20 02:04:54;;;;;;;22.90;13.40;;;;;;;;;;763538;184;915087;-64
2023/08/20 02:07:19;;;;;;;15.20;12.20;;;;;;;;;;760613;184;919525;-64
2023/08/20 02:09:45;;;;;;;14.17;12.70;;;;;;;;;;761156;184;920248;-65
2023/08/20 02:12:11;;;;;;;25.03;12.60;;;;;;;;;;755488;184;920496;-64
2023/08/20 02:14:37;;;;;;;14.73;12.10;;;;;;;;;;761604;184;919223;-58
2023/08/20 02:17:03;;;;;;;13.90;11.80;;;;;;;;;;754096;184;919219;-64
2023/08/20 02:19:29;;;;;;;13.43;12.00;;;;;;;;;;754055;184;919985;-64
2023/08/20 02:21:54;;;;;;;14.80;13.30;;;;;;;;;;766828;183;920026;-64
2023/08/20 02:24:20;;;;;;;17.70;12.20;;;;;;;;;;752163;183;919710;-59
2023/08/20 02:26:46;;;;;;;12.73;11.30;;;;;;;;;;750176;183;918113;-58
2023/08/20 02:29:12;;;;;;;160.53;18.30;;;;;;;;;;764672;183;920578;-58
2023/08/20 02:31:38;;;;;;;23.93;14.00;;;;;;;;;;757491;185;920067;-65
2023/08/20 02:34:04;;;;;;;14.50;11.50;;;;;;;;;;753925;183;919282;-65
2023/08/20 02:36:30;;;;;;;12.82;11.55;;;;;;;;;;760207;183;818886;-64
2023/08/20 02:38:56;;;;;;;14.43;12.90;;;;;;;;;;755397;184;915786;-65
2023/08/20 02:41:22;;;;;;;13.67;12.13;;;;;;;;;;745689;184;918205;-59
2023/08/20 02:43:48;;;;;;;26.40;11.70;;;;;;;;;;746634;186;918652;-59
2023/08/20 02:46:14;;;;;;;14.87;13.50;;;;;;;;;;745516;187;918442;-65
2023/08/20 02:48:39;;;;;;;16.20;14.03;;;;;;;;;;755156;185;913665;-59
2023/08/20 02:51:05;;;;;;;16.67;14.87;;;;;;;;;;755990;185;919741;-65
2023/08/20 02:53:31;;;;;;;18.30;12.27;;;;;;;;;;756298;187;920563;-65
2023/08/20 02:55:57;;;;;;;19.70;14.10;;;;;;;;;;755897;184;915696;-65
2023/08/20 02:58:23;;;;;;;20.50;16.07;;;;;;;;;;736430;190;918097;-65
2023/08/20 03:00:49;;;;;;;20.23;16.50;;;;;;;;;;744123;187;919624;-59
2023/08/20 03:03:14;;;;;;;18.47;16.07;;;;;;;;;;748754;184;915357;-58
2023/08/20 03:05:40;;;;;;;44.73;14.27;;;;;;;;;;753137;186;920874;-59
2023/08/20 03:08:06;;;;;;;26.57;13.23;;;;;;;;;;756632;184;825312;-60
2023/08/20 03:10:32;;;;;;;26.10;12.90;;;;;;;;;;753913;186;919304;-65
2023/08/20 03:12:59;;;;;;;19.03;12.40;;;;;;;;;;741493;188;1017386;-65
2023/08/20 03:15:24;;;;;;;56.07;17.63;;;;;;;;;;753359;186;919488;-59
2023/08/20 03:17:50;;;;;;;84.13;17.40;;;;;;;;;;759773;186;919232;-59
2023/08/20 03:20:16;;;;;;;16.40;13.97;;;;;;;;;;750935;186;921489;-59
2023/08/20 03:22:42;;;;;;;17.97;15.57;;;;;;;;;;754910;185;918737;-59
2023/08/20 03:25:08;;;;;;;21.37;16.27;;;;;;;;;;741170;190;923384;-66
2023/08/20 03:27:34;;;;;;;19.70;15.43;;;;;;;;;;745486;184;916825;-66
2023/08/20 03:30:00;;;;;;;60.47;17.53;;;;;;;;;;751899;186;919572;-58
2023/08/20 03:32:26;;;;;;;32.55;14.87;;;;;;;;;;755361;185;919265;-65
2023/08/20 03:34:53;;;;;;;27.27;15.23;;;;;;;;;;759311;184;917495;-59
2023/08/20 03:37:17;;;;;;;65.07;17.97;;;;;;;;;;753630;184;920198;-65
2023/08/20 03:39:43;;;;;;;31.67;18.10;;;;;;;;;;749332;184;920997;-60
2023/08/20 03:42:09;;;;;;;75.27;18.77;;;;;;;;;;753023;186;818653;-65
2023/08/20 03:44:35;;;;;;;42.93;16.70;;;;;;;;;;755202;186;918512;-65
2023/08/20 03:47:01;;;;;;;20.17;16.93;;;;;;;;;;753036;186;918932;-59
2023/08/20 03:49:26;;;;;;;20.70;18.00;;;;;;;;;;755735;186;816593;-60
2023/08/20 03:51:52;;;;;;;17.40;15.50;;;;;;;;;;754524;182;812080;-60
2023/08/20 03:54:18;;;;;;;17.83;15.03;;;;;;;;;;750883;184;919289;-65
2023/08/20 03:56:44;;;;;;;19.53;16.27;;;;;;;;;;758239;186;916395;-67
2023/08/20 03:59:10;;;;;;;19.03;15.70;;;;;;;;;;739413;188;919828;-67
2023/08/20 04:01:36;;;;;;;24.40;15.23;;;;;;;;;;749329;185;919366;-60
2023/08/20 04:04:02;;;;;;;24.13;15.77;;;;;;;;;;747798;186;918600;-58
2023/08/20 04:06:27;;;;;;;20.07;17.97;;;;;;;;;;756944;186;916277;-58
2023/08/20 04:08:53;;;;;;;17.60;15.77;;;;;;;;;;750248;183;915449;-59
2023/08/20 04:11:19;;;;;;;16.65;14.85;;;;;;;;;;748552;186;921471;-65
2023/08/20 04:13:45;;;;;;;20.63;15.47;;;;;;;;;;737984;191;819524;-66
2023/08/20 04:16:11;;;;;;;19.00;14.83;;;;;;;;;;733322;188;817909;-59
2023/08/20 04:18:37;;;;;;;24.70;16.50;;;;;;;;;;748087;186;916673;-58
2023/08/20 04:21:02;;;;;;;16.57;14.87;;;;;;;;;;750461;186;917503;-66
2023/08/20 04:23:28;;;;;;;19.03;15.30;;;;;;;;;;747777;186;833938;-60
2023/08/20 04:25:54;;;;;;;28.07;15.47;;;;;;;;;;742335;186;904058;-66
2023/08/20 04:28:20;;;;;;;28.77;18.10;;;;;;;;;;752087;185;816791;-65
2023/08/20 04:30:46;;;;;;;18.73;16.50;;;;;;;;;;757313;184;916863;-67
2023/08/20 04:33:12;;;;;;;29.30;16.87;;;;;;;;;;758097;182;918288;-60
2023/08/20 04:35:37;;;;;;;22.17;16.60;;;;;;;;;;752849;184;922754;-60
2023/08/20 04:38:04;;;;;;;71.07;19.50;;;;;;;;;;763893;182;919536;-58
2023/08/20 04:40:29;;;;;;;81.40;19.10;;;;;;;;;;752016;185;931045;-60
2023/08/20 04:42:55;;;;;;;75.80;17.97;;;;;;;;;;753395;186;964212;-67
2023/08/20 04:45:21;;;;;;;57.13;17.20;;;;;;;;;;740930;190;899161;-59
2023/08/20 04:47:47;;;;;;;49.30;16.60;;;;;;;;;;735814;190;862464;-65
2023/08/20 04:50:14;;;;;;;56.30;17.03;;;;;;;;;;737340;188;921239;-60
2023/08/20 04:52:40;;;;;;;29.12;17.83;;;;;;;;;;751017;186;914294;-65
2023/08/20 04:55:07;;;;;;;39.20;17.00;;;;;;;;;;761139;183;817424;-59
2023/08/20 04:57:33;;;;;;;55.93;18.50;;;;;;;;;;759593;183;918729;-59
2023/08/20 04:59:58;;;;;;;31.87;18.53;;;;;;;;;;755088;185;918814;-65
2023/08/20 05:02:24;;;;;;;19.10;16.40;;;;;;;;;;760104;182;913640;-59
2023/08/20 05:04:50;;;;;;;18.02;16.12;;;;;;;;;;753181;184;911010;-65
2023/08/20 05:07:16;;;;;;;21.03;15.30;;;;;;;;;;741310;187;1016912;-60
2023/08/20 05:09:42;;;;;;;19.27;17.05;;;;;;;;;;757075;184;916258;-66
2023/08/20 05:12:08;;;;;;;18.37;16.60;;;;;;;;;;755657;183;919819;-66
2023/08/20 05:14:34;;;;;;;19.00;17.10;;;;;;;;;;753409;183;920976;-65
2023/08/20 05:16:59;;;;;;;18.87;16.50;;;;;;;;;;751831;186;914004;-59
2023/08/20 05:19:25;;;;;;;19.33;16.80;;;;;;;;;;753998;185;914634;-60
2023/08/20 05:21:55;;;;;;;17.93;16.13;;;;;;;;;;753561;185;914877;-59
2023/08/20 05:24:17;;;;;;;19.57;17.57;;;;;;;;;;746431;186;917624;-66
2023/08/20 05:26:43;;;;;;;20.37;17.97;;;;;;;;;;751991;186;918966;-58
2023/08/20 05:29:09;;;;;;;18.67;16.87;;;;;;;;;;752163;187;920144;-67
2023/08/20 05:31:35;;;;;;;18.90;16.90;;;;;;;;;;749104;186;918634;-66
2023/08/20 05:34:00;;;;;;;17.70;16.00;;;;;;;;;;751503;185;874316;-66
2023/08/20 05:36:26;;;;;;;17.30;15.50;;;;;;;;;;752844;183;915831;-65
2023/08/20 05:38:52;;;;;;;17.75;16.05;;;;;;;;;;747598;186;1013043;-66
2023/08/20 05:41:18;;;;;;;18.33;16.53;;;;;;;;;;750071;187;915263;-65
2023/08/20 05:43:44;;;;;;;20.20;18.40;;;;;;;;;;747799;184;916526;-59
2023/08/20 05:46:10;;;;;;;18.07;16.37;;;;;;;;;;744441;188;919759;-60
2023/08/20 05:48:36;;;;;;;18.93;17.03;;;;;;;;;;752325;184;915303;-65
2023/08/20 05:51:01;;;;;;;24.53;17.20;;;;;;;;;;759949;184;916300;-66
2023/08/20 05:53:27;;;;;;;18.90;17.00;;;;;;;;;;755349;182;917810;-59
2023/08/20 05:55:53;;;;;;;20.00;18.10;;;;;;;;;;758489;184;923271;-66
2023/08/20 05:58:19;;;;;;;20.60;17.23;;;;;;;;;;763405;184;915174;-67
2023/08/20 06:00:45;;;;;;;18.30;16.50;;;;;;;;;;755352;185;919836;-67
2023/08/20 06:03:11;;;;;;;18.23;15.93;;;;;;;;;;751762;184;940089;-60
2023/08/20 06:05:36;;;;;;;17.90;16.00;;;;;;;;;;762968;182;906264;-68
2023/08/20 06:08:02;;;;;;;27.60;15.83;;;;;;;;;;755858;184;1037769;-61
2023/08/20 06:10:28;;;;;;;16.53;14.93;;;;;;;;;;760333;182;913643;-67
2023/08/20 06:12:56;;;;;;;15.95;14.45;;;;;;;;;;755634;185;917378;-66
2023/08/20 06:15:21;;;;;;;16.03;14.63;;;;;;;;;;751947;186;920366;-67
2023/08/20 06:17:46;;;;;;;17.03;15.43;;;;;;;;;;747302;185;918804;-66
2023/08/20 06:20:12;;;;;;;16.60;15.00;;;;;;;;;;750722;186;917631;-60
2023/08/20 06:22:38;;;;;;;17.37;15.73;;;;;;;;;;755489;186;918911;-68
2023/08/20 06:25:05;;;;;;;23.80;15.77;;;;;;;;;;748415;187;919513;-66
2023/08/20 06:27:31;;;;;;;18.27;16.37;;;;;;;;;;750194;186;860468;-60
2023/08/20 06:29:56;;;;;;;19.63;15.40;;;;;;;;;;752249;187;919756;-66
2023/08/20 06:32:22;;;;;;;18.73;16.93;;;;;;;;;;750449;187;867050;-67
2023/08/20 06:34:48;;;;;;;18.07;16.27;;;;;;;;;;749662;185;944348;-66
2023/08/20 06:37:14;;;;;;;16.90;15.30;;;;;;;;;;752821;186;915180;-59
2023/08/20 06:39:40;;;;;;;19.47;15.60;;;;;;;;;;752563;183;813828;-60
2023/08/20 06:42:06;;;;;;;16.30;14.70;;;;;;;;;;743520;187;915065;-59
2023/08/20 06:44:32;;;;;;;19.00;17.10;;;;;;;;;;747354;186;917659;-65
2023/08/20 06:46:57;;;;;;;16.47;14.80;;;;;;;;;;754349;187;918135;-66
2023/08/20 06:49:23;;;;;;;19.90;15.17;;;;;;;;;;735590;189;917643;-67
2023/08/20 06:51:49;;;;;;;17.00;15.30;;;;;;;;;;755190;185;879531;-66
2023/08/20 06:54:15;;;;;;;16.95;15.00;;;;;;;;;;738310;190;919325;-67
2023/08/20 06:56:41;;;;;;;18.30;16.40;;;;;;;;;;736371;190;916663;-66
2023/08/20 06:59:07;;;;;;;16.73;14.93;;;;;;;;;;734892;190;919369;-66
2023/08/20 07:01:32;;;;;;;17.07;15.50;;;;;;;;;;740158;188;919200;-68
2023/08/20 07:03:58;;;;;;;17.27;15.70;;;;;;;;;;759028;184;616275;-60
2023/08/20 07:06:24;;;;;;;20.43;16.23;;;;;;;;;;752993;182;634798;-60
2023/08/20 07:08:50;;;;;;;18.73;16.07;;;;;;;;;;764349;181;631775;-66
2023/08/20 07:11:16;;;;;;;16.17;14.57;;;;;;;;;;760720;183;627344;-61
2023/08/20 07:13:42;;;;;;;17.07;15.37;;;;;;;;;;755562;184;628394;-61
2023/08/20 07:16:07;;;;;;;17.43;15.57;;;;;;;;;;763316;184;632087;-61
2023/08/20 07:18:33;;;;;;;16.97;15.27;;;;;;;;;;764113;183;619013;-61
2023/08/20 07:20:59;;;;;;;16.00;14.40;;;;;;;;;;762462;183;629276;-60
2023/08/20 07:23:25;;;;;;;17.77;14.80;;;;;;;;;;760885;183;625500;-68
2023/08/20 07:25:52;;;;;;;16.20;14.60;;;;;;;;;;765964;184;621252;-68
2023/08/20 07:28:26;;;;;;;20.20;15.40;;;;;;;;;;758956;182;711188;-69
2023/08/20 07:30:43;;;;;;;16.30;14.75;;;;;;;;;;759911;184;919274;-62
2023/08/20 07:33:09;;;;;;;16.97;15.27;;;;;;;;;;752951;183;918437;-67
2023/08/20 07:35:35;;;;;;;15.60;14.10;;;;;;;;;;758739;184;922119;-69
2023/08/20 07:38:01;;;;;;;15.37;13.77;;;;;;;;;;749712;186;919171;-69
2023/08/20 07:40:27;;;;;;;15.67;13.20;;;;;;;;;;734057;190;913444;-61
2023/08/20 07:42:53;;;;;;;14.27;12.97;;;;;;;;;;762204;183;919028;-68
2023/08/20 07:45:18;;;;;;;13.43;12.13;;;;;;;;;;751428;185;919105;-68
2023/08/20 07:47:44;;;;;;;15.43;13.93;;;;;;;;;;745460;184;920764;-67
2023/08/20 07:50:10;;;;;;;15.53;12.53;;;;;;;;;;756962;186;915080;-67
2023/08/20 07:52:36;;;;;;;14.32;12.80;;;;;;;;;;750325;182;921074;-60
2023/08/20 07:55:02;;;;;;;14.83;13.23;;;;;;;;;;749510;183;925924;-60
2023/08/20 07:57:28;;;;;;;14.70;13.17;;;;;;;;;;753337;187;912268;-59
2023/08/20 07:59:53;;;;;;;18.53;13.90;;;;;;;;;;753518;185;920311;-60
2023/08/20 08:02:20;;;;;;;14.90;13.60;;;;;;;;;;753211;186;817707;-59
2023/08/20 08:04:46;;;;;;;14.20;11.80;;;;;;;;;;747111;185;818181;-60
2023/08/20 08:07:12;;;;;;;16.60;14.40;;;;;;;;;;753742;186;620443;-67
2023/08/20 08:09:38;;;;;;;14.30;12.67;;;;;;;;;;754732;183;919019;-67
2023/08/20 08:12:04;;;;;;;18.00;13.40;;;;;;;;;;755189;182;847325;-66
2023/08/20 08:14:30;;;;;;;17.17;13.13;;;;;;;;;;766920;184;816896;-60
2023/08/20 08:16:55;;;;;;;15.03;12.80;;;;;;;;;;755700;183;909985;-66
2023/08/20 08:19:21;;;;;;;14.57;13.17;;;;;;;;;;757261;184;825697;-66
2023/08/20 08:21:47;;;;;;;14.13;12.77;;;;;;;;;;757420;183;907504;-66
2023/08/20 08:24:13;;;;;;;13.30;11.90;;;;;;;;;;754279;183;882687;-59
2023/08/20 08:26:39;;;;;;;16.47;12.33;;;;;;;;;;753986;184;914520;-59
2023/08/20 08:29:05;;;;;;;13.70;12.30;;;;;;;;;;758857;181;920402;-60
2023/08/20 08:31:30;;;;;;;13.57;12.17;;;;;;;;;;765012;181;914990;-60
2023/08/20 08:33:56;;;;;;;14.07;12.77;;;;;;;;;;761492;182;764478;-60
2023/08/20 08:36:24;;;;;;;16.27;13.23;;;;;;;;;;759997;183;916995;-65
2023/08/20 08:38:48;;;;;;;13.50;12.30;;;;;;;;;;765595;184;919610;-66
2023/08/20 08:41:14;;;;;;;12.70;11.60;;;;;;;;;;758489;183;919131;-60
2023/08/20 08:43:40;;;;;;;14.73;13.37;;;;;;;;;;754663;183;910866;-60
2023/08/20 08:46:07;;;;;;;14.33;12.83;;;;;;;;;;761933;184;917617;-60
2023/08/20 08:48:33;;;;;;;13.90;12.70;;;;;;;;;;758098;183;916171;-66
2023/08/20 08:50:59;;;;;;;13.17;11.87;;;;;;;;;;757206;184;933851;-67
2023/08/20 08:53:26;;;;;;;16.37;12.17;;;;;;;;;;761688;184;824580;-66
2023/08/20 08:55:51;;;;;;;14.73;12.50;;;;;;;;;;762963;183;911101;-59
2023/08/20 08:58:17;;;;;;;12.57;11.23;;;;;;;;;;759387;182;912985;-67
2023/08/20 09:00:42;;;;;;;12.47;11.37;;;;;;;;;;758074;183;919261;-68
2023/08/20 09:03:08;;;;;;;12.83;11.53;;;;;;;;;;765027;183;918075;-60
2023/08/20 09:05:34;;;;;;;13.33;11.63;;;;;;;;;;752447;184;919667;-68
2023/08/20 09:08:00;;;;;;;12.80;11.43;;;;;;;;;;756160;183;821207;-67
2023/08/20 09:10:26;;;;;;;12.03;10.83;;;;;;;;;;762192;181;922692;-60
2023/08/20 09:12:52;;;;;;;12.23;11.10;;;;;;;;;;759563;183;918817;-61
2023/08/20 09:15:17;;;;;;;13.57;11.43;;;;;;;;;;760034;182;814613;-60
2023/08/20 09:17:43;;;;;;;14.67;11.17;;;;;;;;;;752107;183;915726;-67
2023/08/20 09:20:09;;;;;;;14.30;10.67;;;;;;;;;;755800;184;900668;-60
2023/08/20 09:22:35;;;;;;;10.73;9.73;;;;;;;;;;758991;182;816476;-67
2023/08/20 09:25:02;;;;;;;12.10;10.77;;;;;;;;;;756403;182;917771;-60
2023/08/20 09:27:27;;;;;;;10.60;9.60;;;;;;;;;;760604;184;912521;-70
2023/08/20 09:29:54;;;;;;;12.73;11.50;;;;;;;;;;752479;183;912647;-67
2023/08/20 09:32:20;;;;;;;11.90;10.80;;;;;;;;;;750415;184;915612;-69
2023/08/20 09:34:45;;;;;;;16.03;12.27;;;;;;;;;;760731;184;818207;-60
2023/08/20 09:37:13;;;;;;;12.10;10.90;;;;;;;;;;750600;184;919521;-67
2023/08/20 09:39:39;;;;;;;12.40;11.10;;;;;;;;;;754355;182;919319;-60
2023/08/20 09:42:05;;;;;;;12.07;10.97;;;;;;;;;;758407;184;919159;-67
2023/08/20 09:44:34;;;;;;;13.30;11.33;;;;;;;;;;757240;183;920039;-68
2023/08/20 09:46:59;;;;;;;12.30;11.00;;;;;;;;;;759705;183;919092;-69
2023/08/20 09:49:24;;;;;;;11.60;10.50;;;;;;;;;;761405;183;942840;-61
2023/08/20 09:51:50;;;;;;;12.37;11.10;;;;;;;;;;764725;181;914693;-63
2023/08/20 09:54:17;;;;;;;12.77;10.53;;;;;;;;;;760540;183;921681;-60
2023/08/20 09:56:43;;;;;;;11.67;10.30;;;;;;;;;;758149;184;936294;-68
2023/08/20 09:59:09;;;;;;;9.87;8.50;;;;;;;;;;755200;184;914074;-69
2023/08/20 10:01:34;;;;;;;14.40;11.00;;;;;;;;;;758324;184;915213;-68
2023/08/20 10:04:00;;;;;;;10.07;9.07;;;;;;;;;;758468;184;922962;-61
2023/08/20 10:06:26;;;;;;;10.27;8.87;;;;;;;;;;755957;183;943760;-61
2023/08/20 10:08:52;;;;;;;11.70;9.40;;;;;;;;;;765504;184;922128;-67
2023/08/20 10:11:18;;;;;;;11.50;10.10;;;;;;;;;;760968;183;816353;-60
2023/08/20 10:13:44;;;;;;;16.03;10.80;;;;;;;;;;760381;184;813854;-60
2023/08/20 10:16:10;;;;;;;10.60;9.37;;;;;;;;;;765680;184;624906;-61
2023/08/20 10:18:35;;;;;;;12.20;10.97;;;;;;;;;;761122;184;622504;-60
2023/08/20 10:21:02;;;;;;;10.40;9.37;;;;;;;;;;757748;182;630013;-67
2023/08/20 10:23:27;;;;;;;10.20;9.20;;;;;;;;;;764955;183;613614;-68
2023/08/20 10:25:53;;;;;;;9.70;8.80;;;;;;;;;;763109;184;620770;-61
2023/08/20 10:28:19;;;;;;;10.37;9.47;;;;;;;;;;757474;183;626195;-61
2023/08/20 10:30:51;;;;;;;8.63;7.87;;;;;;;;;;756699;184;816943;-60
2023/08/20 10:33:18;;;;;;;9.80;8.30;;;;;;;;;;761102;184;919366;-59
2023/08/20 10:35:49;;;;;;;8.53;7.73;;;;;;;;;;745774;185;919166;-60
2023/08/20 10:38:17;;;;;;;8.90;8.00;;;;;;;;;;746298;185;918998;-61
2023/08/20 10:41:01;;;;;;;8.47;7.50;;;;;;;;;;749634;187;817136;-61
2023/08/20 10:43:29;;;;;;;8.27;7.47;;;;;;;;;;756926;182;921780;-61
2023/08/20 10:46:00;;;;;;;10.30;8.10;;;;;;;;;;755022;186;762175;-67
2023/08/20 10:48:26;;;;;;;8.43;7.63;;;;;;;;;;749984;184;918293;-66
2023/08/20 10:50:52;;;;;;;8.40;7.70;;;;;;;;;;751970;186;919376;-67
2023/08/20 10:53:18;;;;;;;7.93;7.23;;;;;;;;;;736936;188;919570;-60
2023/08/20 10:55:44;;;;;;;8.73;7.63;;;;;;;;;;743088;188;919853;-66
2023/08/20 10:58:10;;;;;;;11.50;7.43;;;;;;;;;;757084;184;919221;-67
2023/08/20 11:00:35;;;;;;;8.10;6.97;;;;;;;;;;749799;186;920729;-67
2023/08/20 11:03:01;;;;;;;8.37;7.37;;;;;;;;;;765870;183;918763;-66
2023/08/20 11:05:27;;;;;;;7.67;6.97;;;;;;;;;;746019;186;882704;-67
2023/08/20 11:07:53;;;;;;;8.63;7.83;;;;;;;;;;734242;190;919195;-59
2023/08/20 11:10:19;;;;;;;8.93;8.03;;;;;;;;;;746612;187;918193;-66
2023/08/20 11:12:45;;;;;;;8.67;7.77;;;;;;;;;;741474;188;922587;-59
2023/08/20 11:15:12;;;;;;;15.83;8.00;;;;;;;;;;749404;184;915039;-67
2023/08/20 11:17:41;;;;;;;9.63;8.67;;;;;;;;;;740621;189;916496;-61
2023/08/20 11:20:07;;;;;;;8.90;8.10;;;;;;;;;;760286;181;907249;-58
2023/08/20 11:22:33;;;;;;;7.43;6.73;;;;;;;;;;752589;183;889656;-59
2023/08/20 11:24:58;;;;;;;14.73;7.83;;;;;;;;;;747759;183;912693;-60
2023/08/20 11:27:24;;;;;;;8.60;7.80;;;;;;;;;;762741;184;916111;-59
2023/08/20 11:29:52;;;;;;;8.50;7.60;;;;;;;;;;759743;181;922311;-60
2023/08/20 11:32:16;;;;;;;7.60;6.90;;;;;;;;;;752594;183;907305;-66
2023/08/20 11:34:42;;;;;;;7.67;7.00;;;;;;;;;;752188;186;919392;-60
2023/08/20 11:37:08;;;;;;;7.73;7.03;;;;;;;;;;760213;184;918705;-59
2023/08/20 11:39:33;;;;;;;9.60;7.33;;;;;;;;;;756512;184;919012;-66
2023/08/20 11:42:01;;;;;;;7.30;6.57;;;;;;;;;;763020;183;918694;-65
2023/08/20 11:44:26;;;;;;;7.60;6.90;;;;;;;;;;757872;184;919795;-59
2023/08/20 11:46:51;;;;;;;8.20;7.03;;;;;;;;;;758964;184;920025;-65
2023/08/20 11:49:17;;;;;;;9.10;7.63;;;;;;;;;;758846;183;907890;-65
2023/08/20 11:51:43;;;;;;;8.43;7.47;;;;;;;;;;758473;183;818298;-60
2023/08/20 11:54:09;;;;;;;7.33;6.73;;;;;;;;;;751410;184;916889;-65
2023/08/20 11:56:35;;;;;;;11.17;6.90;;;;;;;;;;759122;181;919417;-59
2023/08/20 11:59:01;;;;;;;9.17;7.20;;;;;;;;;;758491;183;920801;-59
2023/08/20 12:01:26;;;;;;;8.97;7.40;;;;;;;;;;752372;184;933147;-63
2023/08/20 12:03:52;;;;;;;8.37;6.63;;;;;;;;;;759609;184;919107;-66
2023/08/20 12:06:19;;;;;;;9.13;8.23;;;;;;;;;;758821;182;919684;-60
2023/08/20 12:08:45;;;;;;;7.90;7.10;;;;;;;;;;755651;184;919715;-65
2023/08/20 12:11:11;;;;;;;10.47;7.03;;;;;;;;;;760688;184;919656;-59
2023/08/20 12:13:37;;;;;;;7.30;6.70;;;;;;;;;;757404;184;918960;-60
2023/08/20 12:16:02;;;;;;;9.03;6.57;;;;;;;;;;758925;184;812149;-65
2023/08/20 12:18:29;;;;;;;9.17;7.30;;;;;;;;;;759983;184;917485;-66
2023/08/20 12:20:54;;;;;;;8.20;7.40;;;;;;;;;;751662;183;923207;-65
2023/08/20 12:23:20;;;;;;;9.13;6.93;;;;;;;;;;761517;184;919916;-59
2023/08/20 12:25:46;;;;;;;7.13;6.33;;;;;;;;;;760555;182;912491;-58
2023/08/20 12:28:12;;;;;;;6.80;6.07;;;;;;;;;;756240;182;922158;-60
2023/08/20 12:30:38;;;;;;;7.13;6.43;;;;;;;;;;763804;183;921931;-66
2023/08/20 12:33:04;;;;;;;6.80;6.20;;;;;;;;;;759719;184;922049;-59
2023/08/20 12:35:30;;;;;;;7.00;6.40;;;;;;;;;;757881;183;914672;-65
2023/08/20 12:37:55;;;;;;;8.87;6.67;;;;;;;;;;758928;183;845395;-66
2023/08/20 12:40:21;;;;;;;7.40;6.50;;;;;;;;;;760577;183;918842;-66
2023/08/20 12:42:47;;;;;;;9.70;7.20;;;;;;;;;;756394;183;883833;-66
2023/08/20 12:45:13;;;;;;;11.50;6.77;;;;;;;;;;757213;183;819213;-66
2023/08/20 12:47:39;;;;;;;7.67;6.93;;;;;;;;;;760061;183;918452;-59
2023/08/20 12:50:05;;;;;;;9.20;7.07;;;;;;;;;;752919;183;918926;-59
2023/08/20 12:52:31;;;;;;;9.43;7.07;;;;;;;;;;755979;183;918931;-60
2023/08/20 12:54:57;;;;;;;8.57;6.97;;;;;;;;;;760409;183;921801;-67
2023/08/20 12:57:23;;;;;;;11.17;7.40;;;;;;;;;;753915;183;919111;-66
2023/08/20 12:59:49;;;;;;;7.30;6.60;;;;;;;;;;756338;182;918654;-60
2023/08/20 13:02:15;;;;;;;8.30;6.00;;;;;;;;;;755841;183;918381;-67
2023/08/20 13:04:40;;;;;;;8.03;7.23;;;;;;;;;;761842;183;920150;-60
2023/08/20 13:07:07;;;;;;;8.17;6.90;;;;;;;;;;753920;183;919264;-60
2023/08/20 13:09:33;;;;;;;8.13;6.47;;;;;;;;;;760420;183;920404;-58
2023/08/20 13:11:59;;;;;;;8.20;6.87;;;;;;;;;;762266;183;820520;-60
2023/08/20 13:14:25;;;;;;;8.40;7.40;;;;;;;;;;760344;183;918445;-66
2023/08/20 13:16:51;;;;;;;7.70;7.00;;;;;;;;;;755995;183;919350;-59
2023/08/20 13:19:17;;;;;;;7.07;6.43;;;;;;;;;;765819;181;627602;-60
2023/08/20 13:21:42;;;;;;;9.27;6.90;;;;;;;;;;762105;182;627073;-60
2023/08/20 13:24:09;;;;;;;13.83;6.13;;;;;;;;;;758333;183;918211;-60
2023/08/20 13:26:34;;;;;;;8.00;7.00;;;;;;;;;;756763;183;920750;-65
2023/08/20 13:29:00;;;;;;;6.33;5.73;;;;;;;;;;764855;184;818052;-59
2023/08/20 13:31:26;;;;;;;7.93;7.07;;;;;;;;;;751996;184;922339;-58
2023/08/20 13:33:52;;;;;;;8.57;6.90;;;;;;;;;;760325;183;919060;-65
2023/08/20 13:36:18;;;;;;;7.63;6.87;;;;;;;;;;760035;183;919749;-66
2023/08/20 13:38:43;;;;;;;12.53;7.33;;;;;;;;;;753432;183;921350;-67
2023/08/20 13:41:09;;;;;;;12.73;6.77;;;;;;;;;;758039;184;914928;-66
2023/08/20 13:43:35;;;;;;;7.83;7.20;;;;;;;;;;763081;182;916971;-60
2023/08/20 13:46:01;;;;;;;7.00;6.27;;;;;;;;;;757366;183;917052;-64
2023/08/20 13:48:27;;;;;;;7.97;7.10;;;;;;;;;;755208;183;919142;-66
2023/08/20 13:50:53;;;;;;;8.33;7.57;;;;;;;;;;757565;183;917527;-60
2023/08/20 13:53:18;;;;;;;7.20;6.50;;;;;;;;;;757249;183;949244;-66
2023/08/20 13:55:44;;;;;;;7.20;6.60;;;;;;;;;;746388;186;916774;-59
2023/08/20 13:58:10;;;;;;;7.90;7.20;;;;;;;;;;754819;185;1022143;-60
2023/08/20 14:00:36;;;;;;;9.97;6.90;;;;;;;;;;755378;185;918412;-66
2023/08/20 14:03:02;;;;;;;8.60;6.57;;;;;;;;;;737807;188;865788;-67